Terminal Aerodrome Forecast
Issued by NWS

Home | Current Version | Previous Version | Text Only | Print | Product List | Glossary On
Versions: 1 2 3 4 5 6 7 8 9 10 11 12 13 14 15
000
FTUS45 KRIW 171120
TAFRKS
TAF
KRKS 171120Z 1712/1812 23007KT P6SM FEW100
     FM171700 25010KT P6SM SKC
     FM172000 26014KT P6SM SCT100
     FM180100 24008KT P6SM SKC=

USA.gov is the U.S. government's official web portal to all federal, state and local government web resources and services.